createdAt,value
2018-05-03T00:04:30.054Z,5.40
2018-05-03T00:09:32.319Z,6.27
2018-05-03T00:14:34.011Z,6.57
2018-05-03T00:19:36.251Z,5.60
2018-05-03T00:24:37.784Z,5.60
2018-05-03T00:29:39.349Z,6.33
2018-05-03T00:34:40.894Z,6.70
2018-05-03T00:39:43.112Z,6.53
2018-05-03T00:44:44.647Z,7.90
2018-05-03T00:49:46.907Z,6.83
2018-05-03T00:54:48.433Z,6.10
2018-05-03T00:59:49.955Z,6.17
2018-05-03T01:04:51.505Z,6.10
2018-05-03T01:09:53.026Z,6.87
2018-05-03T01:14:54.558Z,7.13
2018-05-03T01:19:56.883Z,7.23
2018-05-03T01:24:58.534Z,8.17
2018-05-03T01:30:00.935Z,6.90
2018-05-03T01:35:15.787Z,7.50
2018-05-03T01:40:25.150Z,6.87
2018-05-03T01:45:27.499Z,7.10
2018-05-03T01:50:28.996Z,8.40
2018-05-03T01:55:31.313Z,8.10
2018-05-03T02:00:32.848Z,7.67
2018-05-03T02:05:35.267Z,7.97
2018-05-03T02:10:36.814Z,7.40
2018-05-03T02:15:39.039Z,8.10
2018-05-03T02:20:40.615Z,7.27
2018-05-03T02:25:42.224Z,7.73
2018-05-03T02:30:44.530Z,7.93
2018-05-03T02:35:46.082Z,7.43
2018-05-03T02:40:48.364Z,7.80
2018-05-03T02:45:50.627Z,8.67
2018-05-03T02:50:52.171Z,6.43
2018-05-03T02:55:53.879Z,6.90
2018-05-03T03:17:42.888Z,8.70
2018-05-03T03:23:09.064Z,9.07
2018-05-03T03:28:35.083Z,8.10
2018-05-03T03:33:55.067Z,9.10
2018-05-03T03:39:15.895Z,9.77
2018-05-03T04:00:21.255Z,9.07
2018-05-03T04:05:22.794Z,10.30
2018-05-03T04:10:24.295Z,9.80
2018-05-03T04:15:25.833Z,9.47
2018-05-03T04:21:02.206Z,8.83
2018-05-03T04:26:03.754Z,9.47
2018-05-03T04:31:05.296Z,8.23
2018-05-03T04:36:06.818Z,8.17
2018-05-03T04:41:09.587Z,8.07
2018-05-03T04:46:11.127Z,8.20
2018-05-03T04:51:12.685Z,7.73
2018-05-03T04:56:14.220Z,7.03
2018-05-03T05:01:16.517Z,7.87
2018-05-03T05:06:18.812Z,8.53
2018-05-03T05:11:20.347Z,8.60
2018-05-03T05:16:21.872Z,10.03
2018-05-03T05:21:23.396Z,9.47
2018-05-03T05:26:25.688Z,8.87
2018-05-03T05:31:27.977Z,9.10
2018-05-03T05:36:30.219Z,8.30
2018-05-03T05:41:31.763Z,9.27
2018-05-03T05:46:33.311Z,8.00
2018-05-03T05:51:34.811Z,8.87
2018-05-03T05:56:36.297Z,9.07
2018-05-03T06:01:37.857Z,7.60
2018-05-03T06:06:39.432Z,9.67
2018-05-03T06:11:40.964Z,10.47
2018-05-03T06:16:42.515Z,11.90
2018-05-03T06:21:44.062Z,10.43
2018-05-03T06:26:46.328Z,11.83
2018-05-03T06:31:48.040Z,9.83
2018-05-03T06:36:49.621Z,10.87
2018-05-03T06:41:51.156Z,10.90
2018-05-03T06:46:53.398Z,13.50
2018-05-03T06:51:54.916Z,12.67
2018-05-03T06:56:57.207Z,11.80
2018-05-03T07:01:58.696Z,11.90
2018-05-03T07:07:00.200Z,11.10
2018-05-03T07:12:01.804Z,10.97
2018-05-03T07:17:04.292Z,10.30
2018-05-03T07:22:06.634Z,10.47
2018-05-03T07:27:08.163Z,9.97
2018-05-03T07:32:09.688Z,9.77
2018-05-03T07:37:11.241Z,9.33
2018-05-03T07:42:12.784Z,9.10
2018-05-03T07:47:14.296Z,9.40
2018-05-03T07:52:15.828Z,10.20
2018-05-03T07:57:17.623Z,10.40
2018-05-03T08:02:19.343Z,9.40
2018-05-03T08:07:20.896Z,9.20
2018-05-03T08:12:23.189Z,9.37
2018-05-03T08:17:24.736Z,9.23
2018-05-03T08:22:26.447Z,8.73
2018-05-03T08:27:27.964Z,8.40
2018-05-03T08:32:29.467Z,8.60
2018-05-03T08:37:30.997Z,8.83
2018-05-03T08:42:32.524Z,8.10
2018-05-03T08:47:34.043Z,8.63
2018-05-03T08:52:35.550Z,9.37
2018-05-03T08:57:37.115Z,9.03
2018-05-03T09:02:38.642Z,7.50
2018-05-03T09:07:47.178Z,7.70
2018-05-03T09:12:48.869Z,9.80
2018-05-03T09:17:51.173Z,8.50
2018-05-03T09:22:52.679Z,9.27
2018-05-03T09:27:54.203Z,10.17
2018-05-03T09:32:55.766Z,9.73
2018-05-03T09:37:57.290Z,9.37
2018-05-03T09:42:58.806Z,10.43
2018-05-03T09:48:00.313Z,9.80
2018-05-03T09:53:08.927Z,8.50
2018-05-03T09:58:10.480Z,9.40
2018-05-03T10:03:11.999Z,9.87
2018-05-03T10:08:13.516Z,9.40
2018-05-03T10:13:16.014Z,10.30
2018-05-03T10:18:17.680Z,9.90
2018-05-03T10:23:19.219Z,9.60
2018-05-03T10:28:21.471Z,9.63
2018-05-03T10:33:23.008Z,8.73
2018-05-03T10:38:24.505Z,9.50
2018-05-03T10:43:26.042Z,8.63
2018-05-03T10:48:27.543Z,7.60
2018-05-03T10:53:29.080Z,7.90
2018-05-03T10:58:30.643Z,7.13
2018-05-03T11:03:32.226Z,9.17
2018-05-03T11:08:33.750Z,8.90
2018-05-03T11:13:36.040Z,10.13
2018-05-03T11:18:37.707Z,9.60
2018-05-03T11:23:40.024Z,9.87
2018-05-03T11:28:41.675Z,9.57
2018-05-03T11:33:43.222Z,8.47
2018-05-03T11:38:45.742Z,9.47
2018-05-03T11:43:47.383Z,8.87
2018-05-03T11:48:49.723Z,8.33
2018-05-03T11:53:51.235Z,8.90
2018-05-03T11:58:53.526Z,8.80
2018-05-03T12:03:55.822Z,9.40
2018-05-03T12:08:57.395Z,8.43
2018-05-03T12:13:58.916Z,8.10
2018-05-03T12:19:00.479Z,6.70
2018-05-03T12:24:02.318Z,8.50
2018-05-03T12:29:03.876Z,10.40
2018-05-03T12:34:05.650Z,8.03
2018-05-03T12:39:07.325Z,8.97
2018-05-03T12:44:08.856Z,9.40
2018-05-03T12:49:10.554Z,10.37
2018-05-03T12:54:12.314Z,9.87
2018-05-03T12:59:14.696Z,7.87
2018-05-03T13:04:17.007Z,6.80
2018-05-03T13:09:18.577Z,6.83
2018-05-03T13:14:20.132Z,7.20
2018-05-03T13:19:22.501Z,6.67
2018-05-03T13:24:24.060Z,5.87
2018-05-03T13:29:25.594Z,6.40
2018-05-03T13:34:27.209Z,6.90
2018-05-03T13:39:28.662Z,5.00
2018-05-03T13:44:30.244Z,6.80
2018-05-03T13:49:32.542Z,5.60
2018-05-03T13:54:34.932Z,7.10
2018-05-03T13:59:37.271Z,6.07
2018-05-03T14:04:38.833Z,6.40
2018-05-03T14:09:40.377Z,6.33
2018-05-03T14:14:41.958Z,6.17
2018-05-03T14:19:43.507Z,5.73
2018-05-03T14:24:45.140Z,6.80
2018-05-03T14:29:46.657Z,5.50
2018-05-03T14:34:48.209Z,5.23
2018-05-03T14:39:49.727Z,5.37
2018-05-03T14:44:51.260Z,6.07
2018-05-03T14:49:52.768Z,7.43
2018-05-03T14:54:54.317Z,7.43
2018-05-03T14:59:55.870Z,6.93
2018-05-03T15:04:57.448Z,7.83
2018-05-03T15:09:58.955Z,7.27
2018-05-03T15:15:01.455Z,7.10
2018-05-03T15:20:03.729Z,6.70
2018-05-03T15:25:05.287Z,6.90
2018-05-03T15:30:07.522Z,7.10
2018-05-03T15:35:09.127Z,7.50
2018-05-03T15:40:10.735Z,7.47
2018-05-03T15:45:13.219Z,7.00
2018-05-03T15:50:15.512Z,8.03
2018-05-03T15:55:17.751Z,7.90
2018-05-03T16:00:19.280Z,7.00
2018-05-03T16:05:20.795Z,6.53
2018-05-03T16:10:22.339Z,6.43
2018-05-03T16:15:23.854Z,6.73
2018-05-03T16:20:26.241Z,6.50
2018-05-03T16:25:27.711Z,6.53
2018-05-03T16:30:29.972Z,6.63
2018-05-03T16:35:31.517Z,6.13
2018-05-03T16:40:33.048Z,6.87
2018-05-03T16:45:34.759Z,5.90
2018-05-03T16:50:36.477Z,5.97
2018-05-03T16:55:38.763Z,6.20
2018-05-03T17:00:41.163Z,6.30
2018-05-03T17:05:42.734Z,5.70
2018-05-03T17:10:44.260Z,5.50
2018-05-03T17:15:45.772Z,5.73
2018-05-03T17:20:47.376Z,5.20
2018-05-03T17:25:49.109Z,6.17
2018-05-03T17:30:50.616Z,5.73
2018-05-03T17:35:52.140Z,5.40
2018-05-03T17:40:53.698Z,6.40
2018-05-03T17:45:56.101Z,6.00
2018-05-03T17:50:57.648Z,5.97
2018-05-03T17:56:00.148Z,6.50
2018-05-03T18:01:02.563Z,5.13
2018-05-03T18:06:04.104Z,5.70
2018-05-03T18:11:06.456Z,6.20
2018-05-03T18:16:08.050Z,5.80
2018-05-03T18:21:09.640Z,5.90
2018-05-03T18:26:18.247Z,5.90
2018-05-03T18:31:19.909Z,5.67
2018-05-03T18:36:21.492Z,7.13
2018-05-03T18:41:23.907Z,7.60
2018-05-03T18:46:26.564Z,7.13
2018-05-03T18:51:28.266Z,6.70
2018-05-03T18:56:29.806Z,8.00
2018-05-03T19:01:31.453Z,8.30
2018-05-03T19:06:33.074Z,7.50
2018-05-03T19:11:34.734Z,9.73
2018-05-03T19:16:36.241Z,9.57
2018-05-03T19:21:37.968Z,8.33
2018-05-03T19:26:40.324Z,7.90
2018-05-03T19:31:42.037Z,8.10
2018-05-03T19:36:43.581Z,7.57
2018-05-03T19:41:45.280Z,6.60
2018-05-03T19:46:46.853Z,7.43
2018-05-03T19:51:48.400Z,6.90
2018-05-03T19:56:50.766Z,6.57
2018-05-03T20:01:52.299Z,5.80
2018-05-03T20:06:53.871Z,5.90
2018-05-03T20:11:55.425Z,5.60
2018-05-03T20:16:57.016Z,5.23
2018-05-03T20:21:58.607Z,5.07
2018-05-03T20:27:00.141Z,5.00
2018-05-03T20:32:01.727Z,4.33
2018-05-03T20:37:03.302Z,4.97
2018-05-03T20:42:04.886Z,4.00
2018-05-03T20:47:06.449Z,4.10
2018-05-03T20:52:08.102Z,4.50
2018-05-03T20:57:09.671Z,3.80
2018-05-03T21:02:11.273Z,3.90
2018-05-03T21:07:13.818Z,4.23
2018-05-03T21:12:15.411Z,4.20
2018-05-03T21:17:16.935Z,4.40
2018-05-03T21:22:18.468Z,4.30
2018-05-03T21:27:20.287Z,4.23
2018-05-03T21:32:21.854Z,3.50
2018-05-03T21:37:23.434Z,4.10
2018-05-03T21:42:24.940Z,3.70
2018-05-03T21:47:26.479Z,4.13
2018-05-03T21:52:28.074Z,3.90
2018-05-03T21:57:29.629Z,3.80
2018-05-03T22:02:31.166Z,3.50
2018-05-03T22:07:32.877Z,4.00
2018-05-03T22:12:34.398Z,3.60
2018-05-03T22:17:35.960Z,3.70
2018-05-03T22:22:37.614Z,4.30
2018-05-03T22:27:39.907Z,4.50
2018-05-03T22:32:41.442Z,3.83
2018-05-03T22:37:42.991Z,4.10
2018-05-03T22:42:44.629Z,4.17
2018-05-03T22:47:46.175Z,4.43
2018-05-03T22:52:48.437Z,4.47
2018-05-03T22:57:50.059Z,3.70
2018-05-03T23:02:51.595Z,4.67
2018-05-03T23:07:53.891Z,4.33
2018-05-03T23:12:55.439Z,3.80
2018-05-03T23:17:57.703Z,4.30
2018-05-03T23:22:59.251Z,3.87
2018-05-03T23:28:00.791Z,4.07
2018-05-03T23:33:02.312Z,4.60
2018-05-03T23:38:04.595Z,5.07
2018-05-03T23:43:06.166Z,3.53
2018-05-03T23:48:07.668Z,3.60
2018-05-03T23:53:09.311Z,4.23
2018-05-03T23:58:10.839Z,4.57
